Terminal Aerodrome Forecast
Issued by NWS

Current Version | Previous Version | Text Only | Print | Product List | Glossary Off
Versions: 1 2 3 4 5 6 7 8 9 10 11 12 13 14 15 16 17 18 19 20 21

400
FTUS41 KILN 081410 AAA
TAFLUK
TAF AMD
KLUK 081410Z 0814/0912 25006KT 3SM -RASN OVC009
     FM081600 26008KT P6SM -RASN OVC015
     FM090000 27009KT 5SM -SN BKN015 OVC025=

USA.gov is the U.S. government's official web portal to all federal, state and local government web resources and services.